Skip Navigation Links Skip Navigation Links

Current Weather

Jakutsk, Russia

For information only: do not use for flight planning or navigation.
Latest weather
Observation time Saturday, July 11, 2020 9:00 AM JST
Local time Saturday, July 11, 2020 9:24 AM JST
Flight conditions Marginal Visual Meteorological Conditions
Winds
Wind direction East (90°)
Wind speed 4 mph
Visibility 6.2 mi.
Sky condition
Ceiling 1,500 ft. broken clouds with cumulonimbus
Cloud layer broken clouds with cumulonimbus 1,500 ft.
Temperature 61°F
Dewpoint 55°F
Altimeter 29.85 in.Hg
Precipitation
QF 9:29 PM
Derived measurements
Relative humidity 82%
Density altitude 741 ft.
Remarks
No significant changes expected in the next two hours.
METAR UEEE 110000Z 09002MPS 9999 BKN015CB 16/13 Q1011 R23L/09//60 NOSIG RMK QFE749

Settings

Location code

InnerDrive.Weather 4.0.6770.0 Release CLR 4.0.30319.42000
Copyright ©2018 Inner Drive Technology. All rights reserved. Portions Copyright ©1986-2018 David Braverman.

Find weather

Site navigation


Skip Navigation Links

Place info

Page info

PayPal - The safer, easier way to pay online!

Return home.

Copyright ©2020 Inner Drive Technology. Purveyors of fine, hand-crafted computer software. Page printed 2020-07-11T00:24:50 UTC.